createdAt,value
2022-10-22T00:02:08.005Z,14.90
2022-10-22T00:04:37.522Z,16.15
2022-10-22T00:07:06.790Z,19.58
2022-10-22T00:09:35.707Z,20.70
2022-10-22T00:12:05.183Z,15.98
2022-10-22T00:14:34.172Z,17.95
2022-10-22T00:17:04.228Z,19.77
2022-10-22T00:19:37.178Z,19.55
2022-10-22T00:22:06.786Z,24.00
2022-10-22T00:24:36.839Z,17.88
2022-10-22T00:27:08.245Z,15.65
2022-10-22T00:29:37.908Z,17.63
2022-10-22T00:32:07.835Z,19.08
2022-10-22T00:34:38.210Z,21.17
2022-10-22T00:37:07.118Z,22.48
2022-10-22T00:39:36.276Z,22.42
2022-10-22T00:42:05.213Z,20.08
2022-10-22T00:45:04.984Z,19.48
2022-10-22T00:47:36.889Z,18.08
2022-10-22T00:50:10.462Z,17.48
2022-10-22T00:52:40.386Z,18.05
2022-10-22T00:55:10.395Z,17.20
2022-10-22T00:57:39.380Z,17.83
2022-10-22T01:00:09.636Z,17.08
2022-10-22T01:02:38.970Z,18.13
2022-10-22T01:05:10.562Z,15.65
2022-10-22T01:07:43.441Z,22.83
2022-10-22T01:10:22.488Z,16.10
2022-10-22T01:13:00.607Z,22.33
2022-10-22T01:15:36.068Z,19.85
2022-10-22T01:18:09.175Z,18.67
2022-10-22T01:21:04.397Z,19.63
2022-10-22T01:23:59.253Z,21.15
2022-10-22T01:26:39.066Z,20.10
2022-10-22T01:29:13.526Z,17.52
2022-10-22T01:31:46.018Z,16.35
2022-10-22T01:34:18.703Z,21.40
2022-10-22T01:36:49.410Z,19.35
2022-10-22T01:39:19.138Z,13.30
2022-10-22T01:41:48.484Z,18.42
2022-10-22T01:44:30.380Z,22.73
2022-10-22T01:47:08.971Z,17.65
2022-10-22T01:49:55.082Z,19.45
2022-10-22T01:52:36.761Z,21.92
2022-10-22T01:55:15.876Z,15.40
2022-10-22T01:57:50.114Z,18.90
2022-10-22T02:00:21.293Z,21.47
2022-10-22T02:02:57.661Z,18.38
2022-10-22T02:05:33.558Z,19.92
2022-10-22T02:08:07.788Z,16.80
2022-10-22T02:10:39.212Z,25.43
2022-10-22T02:13:11.040Z,17.20
2022-10-22T02:15:43.143Z,15.68
2022-10-22T02:18:13.033Z,16.45
2022-10-22T02:20:43.617Z,18.15
2022-10-22T02:23:13.301Z,15.07
2022-10-22T02:25:45.506Z,12.25
2022-10-22T02:28:18.039Z,20.33
2022-10-22T02:30:54.012Z,20.67
2022-10-22T02:33:27.565Z,20.30
2022-10-22T02:35:58.727Z,17.58
2022-10-22T02:38:29.914Z,35.25
2022-10-22T02:40:59.313Z,29.75
2022-10-22T02:43:30.675Z,25.92
2022-10-22T02:46:01.142Z,28.58
2022-10-22T02:48:30.667Z,22.60
2022-10-22T02:50:59.524Z,26.88
2022-10-22T02:53:28.372Z,25.83
2022-10-22T02:55:57.380Z,26.50
2022-10-22T02:58:26.329Z,21.45
2022-10-22T03:00:55.385Z,26.48
2022-10-22T03:03:25.904Z,28.95
2022-10-22T03:05:54.811Z,36.20
2022-10-22T03:08:23.854Z,27.10
2022-10-22T03:10:52.754Z,34.00
2022-10-22T03:13:21.647Z,32.13
2022-10-22T03:15:51.187Z,27.02
2022-10-22T03:18:20.121Z,29.40
2022-10-22T03:20:50.407Z,26.75
2022-10-22T03:23:21.193Z,22.90
2022-10-22T03:25:50.999Z,17.25
2022-10-22T03:28:20.154Z,22.00
2022-10-22T03:30:49.084Z,21.10
2022-10-22T03:33:17.979Z,33.08
2022-10-22T03:35:49.128Z,17.33
2022-10-22T03:38:19.650Z,18.35
2022-10-22T03:40:48.849Z,24.50
2022-10-22T03:43:18.290Z,24.00
2022-10-22T03:45:47.303Z,20.15
2022-10-22T03:48:16.288Z,16.42
2022-10-22T03:50:45.193Z,27.05
2022-10-22T03:53:14.132Z,20.08
2022-10-22T03:55:44.431Z,25.05
2022-10-22T03:58:13.283Z,31.92
2022-10-22T04:00:42.228Z,24.42
2022-10-22T04:03:11.433Z,33.05
2022-10-22T04:05:40.307Z,15.65
2022-10-22T04:08:09.416Z,19.08
2022-10-22T04:10:38.497Z,40.30
2022-10-22T04:13:08.820Z,14.68
2022-10-22T04:15:37.872Z,15.50
2022-10-22T04:18:06.955Z,15.98
2022-10-22T04:20:36.118Z,18.02
2022-10-22T04:23:05.059Z,18.27
2022-10-22T04:25:33.891Z,17.85
2022-10-22T04:28:03.300Z,21.33
2022-10-22T04:30:33.584Z,17.38
2022-10-22T04:33:03.242Z,23.30
2022-10-22T04:35:32.124Z,21.90
2022-10-22T04:38:01.003Z,23.38
2022-10-22T04:40:29.906Z,25.13
2022-10-22T04:42:58.887Z,37.00
2022-10-22T04:45:27.774Z,33.70
2022-10-22T04:47:58.083Z,36.75
2022-10-22T04:50:27.278Z,44.63
2022-10-22T04:52:56.244Z,38.38
2022-10-22T04:55:25.210Z,35.58
2022-10-22T04:57:54.178Z,54.95
2022-10-22T05:00:23.063Z,51.67
2022-10-22T05:02:52.366Z,35.50
2022-10-22T05:05:22.662Z,33.97
2022-10-22T05:07:52.463Z,41.67
2022-10-22T05:10:21.400Z,38.03
2022-10-22T05:12:50.330Z,39.17
2022-10-22T05:15:19.223Z,42.83
2022-10-22T05:17:48.157Z,34.55
2022-10-22T05:20:17.238Z,34.75
2022-10-22T05:22:47.516Z,44.63
2022-10-22T05:25:16.548Z,36.30
2022-10-22T05:27:45.462Z,32.17
2022-10-22T05:30:15.880Z,40.33
2022-10-22T05:32:44.997Z,49.45
2022-10-22T05:35:13.916Z,36.60
2022-10-22T05:37:43.058Z,57.97
2022-10-22T05:40:26.876Z,39.92
2022-10-22T05:43:00.418Z,44.35
2022-10-22T05:45:29.951Z,36.38
2022-10-22T05:47:59.492Z,43.53
2022-10-22T05:50:28.464Z,29.90
2022-10-22T05:52:57.471Z,42.95
2022-10-22T05:55:27.853Z,33.58
2022-10-22T05:57:56.794Z,30.73
2022-10-22T06:00:25.707Z,21.17
2022-10-22T06:02:54.630Z,17.65
2022-10-22T06:05:23.576Z,26.02
2022-10-22T06:07:52.619Z,18.38
2022-10-22T06:10:22.536Z,23.40
2022-10-22T06:12:52.776Z,28.73
2022-10-22T06:15:21.822Z,21.38
2022-10-22T06:17:50.727Z,24.35
2022-10-22T06:20:19.842Z,35.72
2022-10-22T06:22:50.548Z,23.23
2022-10-22T06:25:19.476Z,22.02
2022-10-22T06:27:52.771Z,24.70
2022-10-22T06:30:21.738Z,19.85
2022-10-22T06:32:50.767Z,18.83
2022-10-22T06:35:20.153Z,23.35
2022-10-22T06:37:49.811Z,19.83
2022-10-22T06:40:19.626Z,34.50
2022-10-22T06:42:48.675Z,19.85
2022-10-22T06:45:19.330Z,17.95
2022-10-22T06:47:49.219Z,21.63
2022-10-22T06:50:18.874Z,21.58
2022-10-22T06:52:47.782Z,12.93
2022-10-22T06:55:17.170Z,13.60
2022-10-22T06:57:45.997Z,14.77
2022-10-22T07:00:15.795Z,15.45
2022-10-22T07:02:56.387Z,17.95
2022-10-22T07:05:28.148Z,12.55
2022-10-22T07:07:57.074Z,16.60
2022-10-22T07:10:28.530Z,13.98
2022-10-22T07:13:00.081Z,15.35
2022-10-22T07:15:29.619Z,13.95
2022-10-22T07:17:59.910Z,19.15
2022-10-22T07:20:29.532Z,11.30
2022-10-22T07:22:58.542Z,13.90
2022-10-22T07:25:27.469Z,17.52
2022-10-22T07:27:57.519Z,16.65
2022-10-22T07:30:26.384Z,11.80
2022-10-22T07:32:55.237Z,13.32
2022-10-22T07:35:25.531Z,14.02
2022-10-22T07:37:54.352Z,18.50
2022-10-22T07:40:25.469Z,10.52
2022-10-22T07:42:54.402Z,9.95
2022-10-22T07:45:23.458Z,10.38
2022-10-22T07:47:52.367Z,11.35
2022-10-22T07:50:21.381Z,10.70
2022-10-22T07:52:53.775Z,13.57
2022-10-22T07:55:25.043Z,10.32
2022-10-22T07:57:54.130Z,9.38
2022-10-22T08:00:25.242Z,14.65
2022-10-22T08:02:54.486Z,11.80
2022-10-22T08:05:23.481Z,10.75
2022-10-22T08:07:53.875Z,12.23
2022-10-22T08:10:24.157Z,12.00
2022-10-22T08:12:53.518Z,8.45
2022-10-22T08:15:23.645Z,10.85
2022-10-22T08:17:52.636Z,10.63
2022-10-22T08:20:21.928Z,7.57
2022-10-22T08:22:51.890Z,7.07
2022-10-22T08:25:22.544Z,6.00
2022-10-22T08:27:51.650Z,6.68
2022-10-22T08:30:20.855Z,5.40
2022-10-22T08:32:53.048Z,9.05
2022-10-22T08:35:23.622Z,5.55
2022-10-22T08:37:52.765Z,5.75
2022-10-22T08:40:27.026Z,18.40
2022-10-22T08:43:14.523Z,12.15
2022-10-22T08:45:48.666Z,4.30
2022-10-22T08:48:30.359Z,15.05
2022-10-22T08:50:59.634Z,9.85
2022-10-22T08:53:35.745Z,6.43
2022-10-22T08:56:06.632Z,7.70
2022-10-22T08:58:40.723Z,4.03
2022-10-22T09:01:15.088Z,7.97
2022-10-22T09:03:51.671Z,4.63
2022-10-22T09:06:25.213Z,8.93
2022-10-22T09:08:56.124Z,6.90
2022-10-22T09:11:29.127Z,4.82
2022-10-22T09:13:59.219Z,7.85
2022-10-22T09:16:44.015Z,5.13
2022-10-22T09:19:23.960Z,6.28
2022-10-22T09:21:59.160Z,7.10
2022-10-22T09:24:38.095Z,11.77
2022-10-22T09:27:14.091Z,7.15
2022-10-22T09:29:44.185Z,4.72
2022-10-22T09:32:13.563Z,7.60
2022-10-22T09:34:44.889Z,5.03
2022-10-22T09:37:17.481Z,5.18
2022-10-22T09:39:49.183Z,5.05
2022-10-22T09:42:21.956Z,3.92
2022-10-22T09:44:55.292Z,9.82
2022-10-22T09:47:42.943Z,4.50
2022-10-22T09:50:22.002Z,5.25
2022-10-22T09:53:02.088Z,7.05
2022-10-22T09:55:31.201Z,6.22
2022-10-22T09:58:02.375Z,5.55
2022-10-22T10:00:31.527Z,6.07
2022-10-22T10:03:01.574Z,4.32
2022-10-22T10:05:32.576Z,4.57
2022-10-22T10:08:09.498Z,6.13
2022-10-22T10:10:44.995Z,5.13
2022-10-22T10:13:39.713Z,3.92
2022-10-22T10:16:17.030Z,6.28
2022-10-22T10:19:03.409Z,5.35
2022-10-22T10:21:38.546Z,5.75
2022-10-22T10:24:23.682Z,7.15
2022-10-22T10:26:58.372Z,6.60
2022-10-22T10:29:42.969Z,6.38
2022-10-22T10:32:28.287Z,5.68
2022-10-22T10:35:10.262Z,4.40
2022-10-22T10:37:47.340Z,5.43
2022-10-22T10:40:29.738Z,5.10
2022-10-22T10:43:03.713Z,4.93
2022-10-22T10:45:44.106Z,2.90
2022-10-22T10:48:29.379Z,9.45
2022-10-22T10:51:08.744Z,25.95
2022-10-22T10:53:57.349Z,9.82
2022-10-22T10:56:39.254Z,4.20
2022-10-22T10:59:30.114Z,4.25
2022-10-22T11:02:22.173Z,4.88
2022-10-22T11:05:20.252Z,4.47
2022-10-22T11:07:56.104Z,4.90
2022-10-22T11:10:31.053Z,5.95
2022-10-22T11:13:08.294Z,2.97
2022-10-22T11:15:40.821Z,6.32
2022-10-22T11:18:19.705Z,3.83
2022-10-22T11:21:04.295Z,2.60
2022-10-22T11:23:39.539Z,2.58
2022-10-22T11:28:47.720Z,3.13
2022-10-22T11:31:19.020Z,2.80
2022-10-22T11:34:04.888Z,6.15
2022-10-22T11:36:46.254Z,3.47
2022-10-22T11:39:35.366Z,2.80
2022-10-22T11:42:07.333Z,3.55
2022-10-22T11:44:48.701Z,3.17
2022-10-22T11:47:20.860Z,3.05
2022-10-22T11:50:01.019Z,2.80
2022-10-22T11:52:41.565Z,6.35
2022-10-22T11:55:32.205Z,4.85
2022-10-22T11:58:02.405Z,6.28
2022-10-22T12:00:40.792Z,4.93
2022-10-22T12:03:25.337Z,4.32
2022-10-22T12:06:20.986Z,4.30
2022-10-22T12:08:59.607Z,3.40
2022-10-22T12:11:36.589Z,6.28
2022-10-22T12:14:18.986Z,4.05
2022-10-22T12:16:57.006Z,3.28
2022-10-22T12:19:30.441Z,5.70
2022-10-22T12:22:12.441Z,3.60
2022-10-22T12:24:45.334Z,7.00
2022-10-22T12:27:22.785Z,3.97
2022-10-22T12:29:56.432Z,4.07
2022-10-22T12:32:33.848Z,3.38
2022-10-22T12:35:07.253Z,5.15
2022-10-22T12:37:39.132Z,4.70
2022-10-22T12:40:19.359Z,4.88
2022-10-22T12:42:50.442Z,3.25
2022-10-22T12:45:20.053Z,4.10
2022-10-22T12:47:49.702Z,3.67
2022-10-22T12:50:20.711Z,5.28
2022-10-22T12:52:51.347Z,2.15
2022-10-22T12:55:25.650Z,6.43
2022-10-22T12:57:54.914Z,5.38
2022-10-22T13:00:27.068Z,5.13
2022-10-22T13:02:58.752Z,11.00
2022-10-22T13:05:34.217Z,14.07
2022-10-22T13:08:10.073Z,6.25
2022-10-22T13:10:41.081Z,5.97
2022-10-22T13:13:31.869Z,8.40
2022-10-22T13:16:15.969Z,3.50
2022-10-22T13:18:46.034Z,5.10
2022-10-22T13:21:28.339Z,16.05
2022-10-22T13:24:01.314Z,7.78
2022-10-22T13:26:35.802Z,9.90
2022-10-22T13:29:11.939Z,5.50
2022-10-22T13:31:46.979Z,6.47
2022-10-22T13:34:19.828Z,4.63
2022-10-22T13:36:49.891Z,3.50
2022-10-22T13:39:22.540Z,4.72
2022-10-22T13:41:52.144Z,3.80
2022-10-22T13:44:21.332Z,4.32
2022-10-22T13:46:50.719Z,5.47
2022-10-22T13:49:23.534Z,8.02
2022-10-22T13:51:53.015Z,13.40
2022-10-22T13:54:26.017Z,5.65
2022-10-22T13:57:11.892Z,5.20
2022-10-22T13:59:40.837Z,5.10
2022-10-22T14:02:12.822Z,5.65
2022-10-22T14:04:42.762Z,4.22
2022-10-22T14:07:15.034Z,3.70
2022-10-22T14:09:44.370Z,2.70
2022-10-22T14:12:17.188Z,4.40
2022-10-22T14:14:46.000Z,3.95
2022-10-22T14:17:17.106Z,4.03
2022-10-22T14:19:47.703Z,5.40
2022-10-22T14:22:17.841Z,8.30
2022-10-22T14:24:47.247Z,3.35
2022-10-22T14:27:17.531Z,4.25
2022-10-22T14:29:46.419Z,7.07
2022-10-22T14:32:17.581Z,3.22
2022-10-22T14:34:46.866Z,4.90
2022-10-22T14:37:20.359Z,9.90
2022-10-22T14:39:52.788Z,5.53
2022-10-22T14:42:22.985Z,3.53
2022-10-22T14:44:51.763Z,8.07
2022-10-22T14:47:21.412Z,5.07
2022-10-22T14:49:50.227Z,3.30
2022-10-22T14:52:20.216Z,6.50
2022-10-22T14:54:49.096Z,4.40
2022-10-22T14:57:17.944Z,7.72
2022-10-22T14:59:48.195Z,11.05
2022-10-22T15:02:17.182Z,8.25
2022-10-22T15:04:45.992Z,10.38
2022-10-22T15:07:18.237Z,15.85
2022-10-22T15:09:47.870Z,9.75
2022-10-22T15:12:16.693Z,9.43
2022-10-22T15:14:45.496Z,18.88
2022-10-22T15:17:16.077Z,12.90
2022-10-22T15:19:45.266Z,14.02
2022-10-22T15:22:15.166Z,20.15
2022-10-22T15:24:44.971Z,11.25
2022-10-22T15:27:13.947Z,12.32
2022-10-22T15:29:43.744Z,12.18
2022-10-22T15:32:12.651Z,16.42
2022-10-22T15:34:43.260Z,10.45
2022-10-22T15:37:14.542Z,13.68
2022-10-22T15:39:43.709Z,14.60
2022-10-22T15:42:14.520Z,10.82
2022-10-22T15:44:43.315Z,12.07
2022-10-22T15:47:12.187Z,19.90
2022-10-22T15:49:42.911Z,16.88
2022-10-22T15:52:11.817Z,17.17
2022-10-22T15:54:43.838Z,27.30
2022-10-22T15:57:12.678Z,36.03
2022-10-22T15:59:41.483Z,28.60
2022-10-22T16:02:11.563Z,31.52
2022-10-22T16:04:40.737Z,41.55
2022-10-22T16:07:10.931Z,51.83
2022-10-22T16:09:39.749Z,53.10
2022-10-22T16:12:08.852Z,37.85
2022-10-22T16:14:37.689Z,42.58
2022-10-22T16:17:06.530Z,28.77
2022-10-22T16:19:35.887Z,15.30
2022-10-22T16:22:04.683Z,25.60
2022-10-22T16:24:34.995Z,38.58
2022-10-22T16:27:03.848Z,27.67
2022-10-22T16:29:32.718Z,34.33
2022-10-22T16:32:02.041Z,30.05
2022-10-22T16:34:31.013Z,36.83
2022-10-22T16:36:59.910Z,35.10
2022-10-22T16:39:30.277Z,40.13
2022-10-22T16:42:00.491Z,66.63
2022-10-22T16:44:29.801Z,73.45
2022-10-22T16:46:58.639Z,65.97
2022-10-22T16:49:27.593Z,76.75
2022-10-22T16:51:56.389Z,89.05
2022-10-22T16:54:25.257Z,79.45
2022-10-22T16:56:54.098Z,88.88
2022-10-22T16:59:24.361Z,75.60
2022-10-22T17:01:54.631Z,74.25
2022-10-22T17:04:23.700Z,53.47
2022-10-22T17:06:52.599Z,53.05
2022-10-22T17:09:21.721Z,84.15
2022-10-22T17:11:50.619Z,72.25
2022-10-22T17:14:19.438Z,71.43
2022-10-22T17:16:53.682Z,62.85
2022-10-22T17:19:23.846Z,63.60
2022-10-22T17:21:53.624Z,63.30
2022-10-22T17:24:22.559Z,51.33
2022-10-22T17:26:51.388Z,64.85
2022-10-22T17:29:21.991Z,52.83
2022-10-22T17:31:52.606Z,55.67
2022-10-22T17:34:21.447Z,62.03
2022-10-22T17:36:50.294Z,56.13
2022-10-22T17:39:19.698Z,57.47
2022-10-22T17:41:48.523Z,48.38
2022-10-22T17:44:18.212Z,59.03
2022-10-22T17:46:49.613Z,57.20
2022-10-22T17:49:21.906Z,60.58
2022-10-22T17:51:50.839Z,52.65
2022-10-22T17:54:19.754Z,45.75
2022-10-22T17:56:48.618Z,45.10
2022-10-22T17:59:19.102Z,36.95
2022-10-22T18:01:48.826Z,41.35
2022-10-22T18:04:20.634Z,37.85
2022-10-22T18:06:50.148Z,44.55
2022-10-22T18:09:20.157Z,35.75
2022-10-22T18:11:49.924Z,32.38
2022-10-22T18:14:19.420Z,41.97
2022-10-22T18:16:48.814Z,32.35
2022-10-22T18:19:19.434Z,35.75
2022-10-22T18:21:50.178Z,36.65
2022-10-22T18:24:19.045Z,37.25
2022-10-22T18:26:47.872Z,34.53
2022-10-22T18:29:19.207Z,34.10
2022-10-22T18:31:48.589Z,26.13
2022-10-22T18:34:20.345Z,36.13
2022-10-22T18:36:53.370Z,40.07
2022-10-22T18:39:22.244Z,50.97
2022-10-22T18:41:51.393Z,37.80
2022-10-22T18:44:20.298Z,30.92
2022-10-22T18:46:49.158Z,39.35
2022-10-22T18:49:20.322Z,32.17
2022-10-22T18:51:53.170Z,42.72
2022-10-22T18:54:24.589Z,42.08
2022-10-22T18:56:54.937Z,35.50
2022-10-22T18:59:27.026Z,33.88
2022-10-22T19:01:59.397Z,31.70
2022-10-22T19:04:33.093Z,35.83
2022-10-22T19:07:02.190Z,30.63
2022-10-22T19:09:32.669Z,29.58
2022-10-22T19:12:02.136Z,27.63
2022-10-22T19:14:31.163Z,29.50
2022-10-22T19:16:59.949Z,34.15
2022-10-22T19:19:28.733Z,32.05
2022-10-22T19:21:59.548Z,35.25
2022-10-22T19:24:28.442Z,35.00
2022-10-22T19:26:58.682Z,26.73
2022-10-22T19:29:27.591Z,37.83
2022-10-22T19:31:56.433Z,30.13
2022-10-22T19:34:25.251Z,27.65
2022-10-22T19:36:54.050Z,25.10
2022-10-22T19:39:23.015Z,28.10
2022-10-22T19:41:51.971Z,21.95
2022-10-22T19:44:22.263Z,32.97
2022-10-22T19:46:51.040Z,27.95
2022-10-22T19:49:22.175Z,28.80
2022-10-22T19:51:52.014Z,26.83
2022-10-22T19:54:20.882Z,26.67
2022-10-22T19:56:51.161Z,27.70
2022-10-22T19:59:22.815Z,28.48
2022-10-22T20:01:51.848Z,26.08
2022-10-22T20:04:25.022Z,31.92
2022-10-22T20:06:53.942Z,28.73
2022-10-22T20:09:22.978Z,29.30
2022-10-22T20:11:51.947Z,39.75
2022-10-22T20:14:22.202Z,40.78
2022-10-22T20:16:51.027Z,29.08
2022-10-22T20:19:19.919Z,33.10
2022-10-22T20:21:50.566Z,33.85
2022-10-22T20:24:19.841Z,49.42
2022-10-22T20:26:48.734Z,38.60
2022-10-22T20:29:19.103Z,26.55
2022-10-22T20:31:49.743Z,28.95
2022-10-22T20:34:18.632Z,22.00
2022-10-22T20:36:47.947Z,37.08
2022-10-22T20:39:18.894Z,27.85
2022-10-22T20:41:47.793Z,35.70
2022-10-22T20:44:18.062Z,26.92
2022-10-22T20:46:47.278Z,29.02
2022-10-22T20:49:18.926Z,24.67
2022-10-22T20:51:48.082Z,22.75
2022-10-22T20:54:16.997Z,26.17
2022-10-22T20:56:46.142Z,29.23
2022-10-22T20:59:14.963Z,33.17
2022-10-22T21:01:47.494Z,23.35
2022-10-22T21:04:19.596Z,25.50
2022-10-22T21:06:50.185Z,33.08
2022-10-22T21:09:19.156Z,30.45
2022-10-22T21:11:48.524Z,27.73
2022-10-22T21:14:20.245Z,32.95
2022-10-22T21:16:51.281Z,29.73
2022-10-22T21:19:22.910Z,28.60
2022-10-22T21:21:51.803Z,34.40
2022-10-22T21:24:24.589Z,28.92
2022-10-22T21:26:54.273Z,23.45
2022-10-22T21:29:23.109Z,32.95
2022-10-22T21:31:53.211Z,33.42
2022-10-22T21:34:23.437Z,37.63
2022-10-22T21:36:52.959Z,37.15
2022-10-22T21:39:21.946Z,29.17
2022-10-22T21:41:50.749Z,27.98
2022-10-22T21:44:19.605Z,26.15
2022-10-22T21:46:48.427Z,26.80
2022-10-22T21:49:17.279Z,55.60
2022-10-22T21:51:47.640Z,24.55
2022-10-22T21:54:16.677Z,37.38
2022-10-22T21:56:45.507Z,25.95
2022-10-22T21:59:14.336Z,42.53
2022-10-22T22:01:43.209Z,43.53
2022-10-22T22:04:12.083Z,40.85
2022-10-22T22:06:40.876Z,30.73
2022-10-22T22:09:11.252Z,36.67
2022-10-22T22:11:40.140Z,31.67
2022-10-22T22:14:09.078Z,37.50
2022-10-22T22:16:37.901Z,40.67
2022-10-22T22:19:09.153Z,42.08
2022-10-22T22:21:40.633Z,40.47
2022-10-22T22:24:13.812Z,33.22
2022-10-22T22:26:42.845Z,40.55
2022-10-22T22:29:12.090Z,35.42
2022-10-22T22:31:40.970Z,41.33
2022-10-22T22:34:13.475Z,48.45
2022-10-22T22:36:45.424Z,32.28
2022-10-22T22:39:17.706Z,33.55
2022-10-22T22:41:47.180Z,37.38
2022-10-22T22:44:16.345Z,29.42
2022-10-22T22:46:45.765Z,27.25
2022-10-22T22:49:15.437Z,28.90
2022-10-22T22:51:44.616Z,26.05
2022-10-22T22:54:15.086Z,27.35
2022-10-22T22:56:43.974Z,27.98
2022-10-22T22:59:12.885Z,37.45
2022-10-22T23:01:41.927Z,39.33
2022-10-22T23:04:13.757Z,24.50
2022-10-22T23:06:42.551Z,35.53
2022-10-22T23:09:13.692Z,29.65
2022-10-22T23:11:44.991Z,28.20
2022-10-22T23:14:15.488Z,34.90
2022-10-22T23:16:46.643Z,34.67
2022-10-22T23:19:17.478Z,32.53
2022-10-22T23:21:48.351Z,28.33
2022-10-22T23:24:20.863Z,42.10
2022-10-22T23:26:53.259Z,33.25
2022-10-22T23:29:23.759Z,32.80
2022-10-22T23:31:53.930Z,39.63
2022-10-22T23:34:24.495Z,33.10
2022-10-22T23:36:53.960Z,30.70
2022-10-22T23:39:24.806Z,32.03
2022-10-22T23:41:55.469Z,35.80
2022-10-22T23:44:24.393Z,29.35
2022-10-22T23:46:53.277Z,40.45
2022-10-22T23:49:22.271Z,31.17
2022-10-22T23:51:51.082Z,31.55
2022-10-22T23:54:20.194Z,26.95
2022-10-22T23:56:49.034Z,34.28
2022-10-22T23:59:19.287Z,27.83
